sensor_id;sensor_type;location;lat;lon;timestamp;pressure;altitude;pressure_sealevel;temperature;humidity
11314;BME280;5712;48.858;9.206;2024-02-26T00:01:46;96291.38;;;6.45;100.00
11314;BME280;5712;48.858;9.206;2024-02-26T00:04:13;96293.56;;;6.40;100.00
11314;BME280;5712;48.858;9.206;2024-02-26T00:06:41;96287.34;;;6.41;100.00
11314;BME280;5712;48.858;9.206;2024-02-26T00:09:07;96279.22;;;6.44;100.00
11314;BME280;5712;48.858;9.206;2024-02-26T00:11:35;96285.31;;;6.44;100.00
11314;BME280;5712;48.858;9.206;2024-02-26T00:14:01;96273.16;;;6.43;100.00
11314;BME280;5712;48.858;9.206;2024-02-26T00:16:28;96274.81;;;6.44;100.00
11314;BME280;5712;48.858;9.206;2024-02-26T00:18:56;96274.53;;;6.47;99.97
11314;BME280;5712;48.858;9.206;2024-02-26T00:21:23;96265.97;;;6.45;99.64
11314;BME280;5712;48.858;9.206;2024-02-26T00:23:50;96265.97;;;6.45;99.78
11314;BME280;5712;48.858;9.206;2024-02-26T00:26:17;96269.81;;;6.41;100.00
11314;BME280;5712;48.858;9.206;2024-02-26T00:28:43;96266.47;;;6.39;100.00
11314;BME280;5712;48.858;9.206;2024-02-26T00:31:10;96265.63;;;6.39;100.00
11314;BME280;5712;48.858;9.206;2024-02-26T00:33:36;96271.97;;;6.36;100.00
11314;BME280;5712;48.858;9.206;2024-02-26T00:36:04;96254.97;;;6.51;100.00
11314;BME280;5712;48.858;9.206;2024-02-26T00:38:30;96254.50;;;6.46;100.00
11314;BME280;5712;48.858;9.206;2024-02-26T00:40:58;96261.47;;;6.36;100.00
11314;BME280;5712;48.858;9.206;2024-02-26T00:43:25;96256.50;;;6.33;100.00
11314;BME280;5712;48.858;9.206;2024-02-26T00:45:51;96260.06;;;6.32;100.00
11314;BME280;5712;48.858;9.206;2024-02-26T00:48:18;96257.44;;;6.32;100.00
11314;BME280;5712;48.858;9.206;2024-02-26T00:50:44;96268.75;;;6.33;100.00
11314;BME280;5712;48.858;9.206;2024-02-26T00:53:11;96263.91;;;6.28;100.00
11314;BME280;5712;48.858;9.206;2024-02-26T00:55:37;96267.69;;;6.35;100.00
11314;BME280;5712;48.858;9.206;2024-02-26T00:58:05;96266.03;;;6.34;100.00
11314;BME280;5712;48.858;9.206;2024-02-26T01:00:32;96261.72;;;6.33;100.00
11314;BME280;5712;48.858;9.206;2024-02-26T01:02:58;96271.97;;;6.36;100.00
11314;BME280;5712;48.858;9.206;2024-02-26T01:05:25;96263.84;;;6.39;100.00
11314;BME280;5712;48.858;9.206;2024-02-26T01:07:52;96272.31;;;6.43;100.00
11314;BME280;5712;48.858;9.206;2024-02-26T01:10:18;96260.22;;;6.51;100.00
11314;BME280;5712;48.858;9.206;2024-02-26T01:12:45;96261.88;;;6.52;99.85
11314;BME280;5712;48.858;9.206;2024-02-26T01:15:12;96263.03;;;6.59;99.10
11314;BME280;5712;48.858;9.206;2024-02-26T01:17:39;96266.38;;;6.61;98.59
11314;BME280;5712;48.858;9.206;2024-02-26T01:20:06;96245.41;;;6.61;98.05
11314;BME280;5712;48.858;9.206;2024-02-26T01:22:34;96228.75;;;6.72;95.61
11314;BME280;5712;48.858;9.206;2024-02-26T01:25:00;96219.50;;;6.77;94.80
11314;BME280;5712;48.858;9.206;2024-02-26T01:27:27;96218.47;;;6.89;92.07
11314;BME280;5712;48.858;9.206;2024-02-26T01:29:53;96213.75;;;6.83;90.38
11314;BME280;5712;48.858;9.206;2024-02-26T01:32:21;96198.59;;;6.96;90.16
11314;BME280;5712;48.858;9.206;2024-02-26T01:34:48;96193.34;;;6.96;85.88
11314;BME280;5712;48.858;9.206;2024-02-26T01:37:15;96197.22;;;6.92;86.83
11314;BME280;5712;48.858;9.206;2024-02-26T01:39:41;96194.44;;;6.94;86.46
11314;BME280;5712;48.858;9.206;2024-02-26T01:42:08;96214.19;;;6.88;86.99
11314;BME280;5712;48.858;9.206;2024-02-26T01:44:34;96224.25;;;6.83;86.81
11314;BME280;5712;48.858;9.206;2024-02-26T01:47:01;96226.75;;;6.85;87.97
11314;BME280;5712;48.858;9.206;2024-02-26T01:49:30;96220.91;;;6.81;88.16
11314;BME280;5712;48.858;9.206;2024-02-26T01:51:56;96221.88;;;6.80;88.86
11314;BME280;5712;48.858;9.206;2024-02-26T01:54:24;96226.16;;;6.81;88.13
11314;BME280;5712;48.858;9.206;2024-02-26T01:56:50;96249.34;;;6.76;89.09
11314;BME280;5712;48.858;9.206;2024-02-26T01:59:17;96266.75;;;6.77;90.17
11314;BME280;5712;48.858;9.206;2024-02-26T02:01:47;96267.03;;;6.74;91.50
11314;BME280;5712;48.858;9.206;2024-02-26T02:04:15;96267.84;;;6.75;91.32
11314;BME280;5712;48.858;9.206;2024-02-26T02:06:45;96260.81;;;6.75;91.34
11314;BME280;5712;48.858;9.206;2024-02-26T02:09:11;96278.22;;;6.76;91.08
11314;BME280;5712;48.858;9.206;2024-02-26T02:11:38;96274.63;;;6.77;91.15
11314;BME280;5712;48.858;9.206;2024-02-26T02:14:05;96271.75;;;6.80;89.76
11314;BME280;5712;48.858;9.206;2024-02-26T02:16:32;96268.88;;;6.83;88.51
11314;BME280;5712;48.858;9.206;2024-02-26T02:18:59;96267.66;;;6.87;87.68
11314;BME280;5712;48.858;9.206;2024-02-26T02:21:27;96277.84;;;6.81;89.71
11314;BME280;5712;48.858;9.206;2024-02-26T02:23:53;96288.44;;;6.79;91.52
11314;BME280;5712;48.858;9.206;2024-02-26T02:26:20;96288.97;;;6.73;93.02
11314;BME280;5712;48.858;9.206;2024-02-26T02:28:48;96290.25;;;6.79;92.45
11314;BME280;5712;48.858;9.206;2024-02-26T02:31:15;96271.50;;;6.83;90.15
11314;BME280;5712;48.858;9.206;2024-02-26T02:33:42;96266.25;;;6.83;89.65
11314;BME280;5712;48.858;9.206;2024-02-26T02:36:09;96257.66;;;6.81;89.24
11314;BME280;5712;48.858;9.206;2024-02-26T02:38:38;96276.75;;;6.83;89.83
11314;BME280;5712;48.858;9.206;2024-02-26T02:41:04;96279.81;;;6.88;90.00
11314;BME280;5712;48.858;9.206;2024-02-26T02:43:31;96278.41;;;6.84;90.79
11314;BME280;5712;48.858;9.206;2024-02-26T02:45:58;96271.75;;;6.80;89.74
11314;BME280;5712;48.858;9.206;2024-02-26T02:48:24;96274.38;;;6.80;90.23
11314;BME280;5712;48.858;9.206;2024-02-26T02:50:51;96259.34;;;6.82;88.45
11314;BME280;5712;48.858;9.206;2024-02-26T02:53:17;96258.81;;;6.88;87.52
11314;BME280;5712;48.858;9.206;2024-02-26T02:55:45;96256.19;;;6.88;87.72
11314;BME280;5712;48.858;9.206;2024-02-26T02:58:11;96257.63;;;6.92;87.32
11314;BME280;5712;48.858;9.206;2024-02-26T03:00:38;96246.47;;;7.09;86.02
11314;BME280;5712;48.858;9.206;2024-02-26T03:03:04;96279.94;;;7.07;90.69
11314;BME280;5712;48.858;9.206;2024-02-26T03:05:31;96290.31;;;6.88;93.03
11314;BME280;5712;48.858;9.206;2024-02-26T03:07:58;96287.75;;;6.77;94.35
11314;BME280;5712;48.858;9.206;2024-02-26T03:10:25;96296.03;;;6.73;94.23
11314;BME280;5712;48.858;9.206;2024-02-26T03:12:53;96309.22;;;6.82;93.27
11314;BME280;5712;48.858;9.206;2024-02-26T03:15:20;96318.75;;;6.83;94.98
11314;BME280;5712;48.858;9.206;2024-02-26T03:17:46;96323.94;;;6.74;96.59
11314;BME280;5712;48.858;9.206;2024-02-26T03:20:13;96325.53;;;6.65;99.62
11314;BME280;5712;48.858;9.206;2024-02-26T03:22:39;96323.84;;;6.64;98.96
11314;BME280;5712;48.858;9.206;2024-02-26T03:25:07;96303.31;;;6.69;97.69
11314;BME280;5712;48.858;9.206;2024-02-26T03:27:33;96282.19;;;6.71;94.63
11314;BME280;5712;48.858;9.206;2024-02-26T03:30:01;96269.78;;;6.73;93.71
11314;BME280;5712;48.858;9.206;2024-02-26T03:32:28;96246.31;;;6.81;89.15
11314;BME280;5712;48.858;9.206;2024-02-26T03:34:55;96247.63;;;6.86;87.26
11314;BME280;5712;48.858;9.206;2024-02-26T03:37:21;96272.47;;;6.82;89.27
11314;BME280;5712;48.858;9.206;2024-02-26T03:39:48;96285.59;;;6.82;92.06
11314;BME280;5712;48.858;9.206;2024-02-26T03:42:14;96288.59;;;6.78;94.67
11314;BME280;5712;48.858;9.206;2024-02-26T03:44:41;96293.97;;;6.76;95.92
11314;BME280;5712;48.858;9.206;2024-02-26T03:47:09;96287.44;;;6.71;96.67
11314;BME280;5712;48.858;9.206;2024-02-26T03:49:36;96289.34;;;6.69;98.43
11314;BME280;5712;48.858;9.206;2024-02-26T03:52:02;96275.66;;;6.65;98.11
11314;BME280;5712;48.858;9.206;2024-02-26T03:54:29;96275.19;;;6.60;98.53
11314;BME280;5712;48.858;9.206;2024-02-26T03:56:55;96267.13;;;6.52;99.57
11314;BME280;5712;48.858;9.206;2024-02-26T03:59:22;96273.66;;;6.37;100.00
11314;BME280;5712;48.858;9.206;2024-02-26T04:01:50;96277.34;;;6.35;100.00
11314;BME280;5712;48.858;9.206;2024-02-26T04:04:18;96266.47;;;6.39;100.00
11314;BME280;5712;48.858;9.206;2024-02-26T04:06:44;96275.81;;;6.32;100.00
11314;BME280;5712;48.858;9.206;2024-02-26T04:09:11;96274.41;;;6.17;100.00
11314;BME280;5712;48.858;9.206;2024-02-26T04:11:37;96296.13;;;6.19;100.00
11314;BME280;5712;48.858;9.206;2024-02-26T04:14:04;96299.28;;;6.02;100.00
11314;BME280;5712;48.858;9.206;2024-02-26T04:16:31;96305.13;;;5.95;100.00
11314;BME280;5712;48.858;9.206;2024-02-26T04:18:57;96299.28;;;5.91;100.00
11314;BME280;5712;48.858;9.206;2024-02-26T04:21:25;96287.13;;;6.01;100.00
11314;BME280;5712;48.858;9.206;2024-02-26T04:23:52;96279.09;;;6.03;100.00
11314;BME280;5712;48.858;9.206;2024-02-26T04:26:20;96276.81;;;6.20;100.00
11314;BME280;5712;48.858;9.206;2024-02-26T04:28:46;96264.22;;;6.03;100.00
11314;BME280;5712;48.858;9.206;2024-02-26T04:31:13;96274.63;;;5.94;100.00
11314;BME280;5712;48.858;9.206;2024-02-26T04:33:39;96263.53;;;5.90;100.00
11314;BME280;5712;48.858;9.206;2024-02-26T04:36:12;96261.03;;;5.89;100.00
11314;BME280;5712;48.858;9.206;2024-02-26T04:38:40;96260.66;;;5.93;100.00
11314;BME280;5712;48.858;9.206;2024-02-26T04:41:07;96263.16;;;6.06;100.00
11314;BME280;5712;48.858;9.206;2024-02-26T04:43:33;96263.69;;;6.20;100.00
11314;BME280;5712;48.858;9.206;2024-02-26T04:46:00;96273.72;;;6.15;100.00
11314;BME280;5712;48.858;9.206;2024-02-26T04:48:27;96268.97;;;6.09;100.00
11314;BME280;5712;48.858;9.206;2024-02-26T04:50:54;96276.13;;;6.07;100.00
11314;BME280;5712;48.858;9.206;2024-02-26T04:53:20;96284.97;;;6.06;100.00
11314;BME280;5712;48.858;9.206;2024-02-26T04:55:48;96270.13;;;6.16;100.00
11314;BME280;5712;48.858;9.206;2024-02-26T04:58:14;96249.31;;;6.35;100.00
11314;BME280;5712;48.858;9.206;2024-02-26T05:00:41;96248.81;;;6.41;100.00
11314;BME280;5712;48.858;9.206;2024-02-26T05:03:07;96261.72;;;6.33;100.00
11314;BME280;5712;48.858;9.206;2024-02-26T05:05:38;96269.16;;;6.28;100.00
11314;BME280;5712;48.858;9.206;2024-02-26T05:08:05;96258.25;;;6.33;100.00
11314;BME280;5712;48.858;9.206;2024-02-26T05:10:32;96241.34;;;6.57;99.95
11314;BME280;5712;48.858;9.206;2024-02-26T05:13:01;96250.88;;;6.58;99.59
11314;BME280;5712;48.858;9.206;2024-02-26T05:15:27;96259.06;;;6.44;100.00
11314;BME280;5712;48.858;9.206;2024-02-26T05:17:54;96269.47;;;6.35;100.00
11314;BME280;5712;48.858;9.206;2024-02-26T05:20:20;96256.69;;;6.41;100.00
11314;BME280;5712;48.858;9.206;2024-02-26T05:22:47;96244.47;;;6.51;97.94
11314;BME280;5712;48.858;9.206;2024-02-26T05:25:14;96246.06;;;6.43;98.21
11314;BME280;5712;48.858;9.206;2024-02-26T05:27:41;96254.91;;;6.42;99.05
11314;BME280;5712;48.858;9.206;2024-02-26T05:30:11;96271.47;;;6.42;100.00
11314;BME280;5712;48.858;9.206;2024-02-26T05:32:37;96269.81;;;6.41;100.00
11314;BME280;5712;48.858;9.206;2024-02-26T05:35:05;96278.13;;;6.46;99.67
11314;BME280;5712;48.858;9.206;2024-02-26T05:37:31;96274.53;;;6.47;99.20
11314;BME280;5712;48.858;9.206;2024-02-26T05:39:59;96276.78;;;6.52;99.04
11314;BME280;5712;48.858;9.206;2024-02-26T05:42:25;96271.19;;;6.56;98.60
11314;BME280;5712;48.858;9.206;2024-02-26T05:44:52;96278.78;;;6.59;98.05
11314;BME280;5712;48.858;9.206;2024-02-26T05:47:20;96297.03;;;6.61;97.30
11314;BME280;5712;48.858;9.206;2024-02-26T05:49:46;96301.44;;;6.60;97.84
11314;BME280;5712;48.858;9.206;2024-02-26T05:52:14;96314.56;;;6.60;97.67
11314;BME280;5712;48.858;9.206;2024-02-26T05:54:40;96315.53;;;6.59;97.89
11314;BME280;5712;48.858;9.206;2024-02-26T05:57:07;96319.09;;;6.58;97.10
11314;BME280;5712;48.858;9.206;2024-02-26T05:59:33;96324.84;;;6.52;98.70
11314;BME280;5712;48.858;9.206;2024-02-26T06:02:00;96334.44;;;6.42;100.00
11314;BME280;5712;48.858;9.206;2024-02-26T06:04:27;96336.84;;;6.34;100.00
11314;BME280;5712;48.858;9.206;2024-02-26T06:06:54;96342.84;;;6.25;100.00
11314;BME280;5712;48.858;9.206;2024-02-26T06:09:22;96345.13;;;6.19;100.00
11314;BME280;5712;48.858;9.206;2024-02-26T06:11:48;96362.88;;;6.15;100.00
11314;BME280;5712;48.858;9.206;2024-02-26T06:14:15;96349.88;;;6.25;100.00
11314;BME280;5712;48.858;9.206;2024-02-26T06:16:43;96335.69;;;6.27;100.00
11314;BME280;5712;48.858;9.206;2024-02-26T06:19:10;96347.63;;;6.20;100.00
11314;BME280;5712;48.858;9.206;2024-02-26T06:21:37;96358.72;;;6.13;100.00
11314;BME280;5712;48.858;9.206;2024-02-26T06:24:04;96365.03;;;6.10;100.00
11314;BME280;5712;48.858;9.206;2024-02-26T06:26:31;96361.72;;;6.08;100.00
11314;BME280;5712;48.858;9.206;2024-02-26T06:28:58;96367.19;;;6.05;100.00
11314;BME280;5712;48.858;9.206;2024-02-26T06:31:25;96360.53;;;6.01;100.00
11314;BME280;5712;48.858;9.206;2024-02-26T06:33:52;96361.97;;;5.94;100.00
11314;BME280;5712;48.858;9.206;2024-02-26T06:36:19;96365.09;;;5.88;100.00
11314;BME280;5712;48.858;9.206;2024-02-26T06:38:47;96356.97;;;5.91;100.00
11314;BME280;5712;48.858;9.206;2024-02-26T06:41:14;96364.34;;;5.97;100.00
11314;BME280;5712;48.858;9.206;2024-02-26T06:43:40;96370.44;;;5.98;100.00
11314;BME280;5712;48.858;9.206;2024-02-26T06:46:07;96374.72;;;6.10;100.00
11314;BME280;5712;48.858;9.206;2024-02-26T06:48:33;96372.19;;;6.08;100.00
11314;BME280;5712;48.858;9.206;2024-02-26T06:51:02;96369.47;;;6.10;100.00
11314;BME280;5712;48.858;9.206;2024-02-26T06:53:28;96373.88;;;6.09;100.00
11314;BME280;5712;48.858;9.206;2024-02-26T06:55:56;96385.19;;;6.10;100.00
11314;BME280;5712;48.858;9.206;2024-02-26T06:58:23;96374.56;;;6.11;100.00
11314;BME280;5712;48.858;9.206;2024-02-26T07:00:49;96390.78;;;6.16;100.00
11314;BME280;5712;48.858;9.206;2024-02-26T07:03:16;96394.84;;;6.20;100.00
11314;BME280;5712;48.858;9.206;2024-02-26T07:05:42;96393.88;;;6.21;100.00
11314;BME280;5712;48.858;9.206;2024-02-26T07:08:10;96402.44;;;6.23;100.00
11314;BME280;5712;48.858;9.206;2024-02-26T07:10:36;96401.72;;;6.32;100.00
11314;BME280;5712;48.858;9.206;2024-02-26T07:13:04;96415.56;;;6.34;100.00
11314;BME280;5712;48.858;9.206;2024-02-26T07:15:31;96419.84;;;6.35;100.00
11314;BME280;5712;48.858;9.206;2024-02-26T07:17:58;96431.66;;;6.41;100.00
11314;BME280;5712;48.858;9.206;2024-02-26T07:20:28;96429.63;;;6.44;100.00
11314;BME280;5712;48.858;9.206;2024-02-26T07:22:54;96429.72;;;6.43;100.00
11314;BME280;5712;48.858;9.206;2024-02-26T07:25:21;96433.53;;;6.39;100.00
11314;BME280;5712;48.858;9.206;2024-02-26T07:27:48;96434.72;;;6.46;100.00
11314;BME280;5712;48.858;9.206;2024-02-26T07:30:16;96435.56;;;6.46;100.00
11314;BME280;5712;48.858;9.206;2024-02-26T07:32:43;96441.50;;;6.48;100.00
11314;BME280;5712;48.858;9.206;2024-02-26T07:35:09;96436.03;;;6.51;100.00
11314;BME280;5712;48.858;9.206;2024-02-26T07:37:36;96440.31;;;6.52;100.00
11314;BME280;5712;48.858;9.206;2024-02-26T07:40:03;96446.16;;;6.56;100.00
11314;BME280;5712;48.858;9.206;2024-02-26T07:42:31;96432.91;;;6.57;100.00
11314;BME280;5712;48.858;9.206;2024-02-26T07:44:57;96444.13;;;6.59;100.00
11314;BME280;5712;48.858;9.206;2024-02-26T07:47:25;96433.59;;;6.70;100.00
11314;BME280;5712;48.858;9.206;2024-02-26T07:49:51;96440.03;;;6.77;100.00
11314;BME280;5712;48.858;9.206;2024-02-26T07:52:18;96448.00;;;6.76;100.00
11314;BME280;5712;48.858;9.206;2024-02-26T07:54:44;96451.47;;;6.76;100.00
11314;BME280;5712;48.858;9.206;2024-02-26T07:57:11;96457.19;;;6.81;100.00
11314;BME280;5712;48.858;9.206;2024-02-26T07:59:40;96458.59;;;6.85;100.00
11314;BME280;5712;48.858;9.206;2024-02-26T08:02:07;96446.91;;;6.89;100.00
11314;BME280;5712;48.858;9.206;2024-02-26T08:04:35;96454.16;;;6.97;100.00
11314;BME280;5712;48.858;9.206;2024-02-26T08:07:01;96450.84;;;7.15;100.00
11314;BME280;5712;48.858;9.206;2024-02-26T08:09:27;96445.91;;;7.32;100.00
11314;BME280;5712;48.858;9.206;2024-02-26T08:11:54;96434.09;;;7.27;100.00
11314;BME280;5712;48.858;9.206;2024-02-26T08:14:21;96440.06;;;7.29;100.00
11314;BME280;5712;48.858;9.206;2024-02-26T08:16:47;96448.47;;;7.23;100.00
11314;BME280;5712;48.858;9.206;2024-02-26T08:19:14;96442.22;;;7.24;100.00
11314;BME280;5712;48.858;9.206;2024-02-26T08:21:42;96452.25;;;7.30;100.00
11314;BME280;5712;48.858;9.206;2024-02-26T08:24:08;96442.31;;;7.33;100.00
11314;BME280;5712;48.858;9.206;2024-02-26T08:26:35;96444.34;;;7.30;100.00
11314;BME280;5712;48.858;9.206;2024-02-26T08:29:02;96445.78;;;7.34;100.00
11314;BME280;5712;48.858;9.206;2024-02-26T08:31:28;96439.69;;;7.33;100.00
11314;BME280;5712;48.858;9.206;2024-02-26T08:33:55;96446.00;;;7.31;100.00
11314;BME280;5712;48.858;9.206;2024-02-26T08:36:23;96447.78;;;7.30;100.00
11314;BME280;5712;48.858;9.206;2024-02-26T08:38:51;96441.09;;;7.38;100.00
11314;BME280;5712;48.858;9.206;2024-02-26T08:41:17;96437.22;;;7.41;100.00
11314;BME280;5712;48.858;9.206;2024-02-26T08:43:44;96431.00;;;7.42;100.00
11314;BME280;5712;48.858;9.206;2024-02-26T08:46:12;96443.50;;;7.29;100.00
11314;BME280;5712;48.858;9.206;2024-02-26T08:48:38;96453.50;;;7.35;100.00
11314;BME280;5712;48.858;9.206;2024-02-26T08:51:06;96456.03;;;7.37;100.00
11314;BME280;5712;48.858;9.206;2024-02-26T08:53:33;96457.19;;;7.44;100.00
11314;BME280;5712;48.858;9.206;2024-02-26T08:56:01;96452.38;;;7.49;100.00
11314;BME280;5712;48.858;9.206;2024-02-26T08:58:27;96448.66;;;7.72;100.00
11314;BME280;5712;48.858;9.206;2024-02-26T09:00:54;96451.91;;;7.85;100.00
11314;BME280;5712;48.858;9.206;2024-02-26T09:03:20;96455.97;;;7.89;100.00
11314;BME280;5712;48.858;9.206;2024-02-26T09:05:47;96454.25;;;7.88;100.00
11314;BME280;5712;48.858;9.206;2024-02-26T09:08:13;96456.78;;;7.89;100.00
11314;BME280;5712;48.858;9.206;2024-02-26T09:10:40;96455.69;;;7.92;100.00
11314;BME280;5712;48.858;9.206;2024-02-26T09:13:08;96459.72;;;7.96;100.00
11314;BME280;5712;48.858;9.206;2024-02-26T09:15:34;96451.31;;;8.02;100.00
11314;BME280;5712;48.858;9.206;2024-02-26T09:18:01;96460.06;;;8.12;100.00
11314;BME280;5712;48.858;9.206;2024-02-26T09:20:28;96458.53;;;8.30;100.00
11314;BME280;5712;48.858;9.206;2024-02-26T09:22:54;96445.94;;;8.43;100.00
11314;BME280;5712;48.858;9.206;2024-02-26T09:25:21;96439.22;;;8.50;100.00
11314;BME280;5712;48.858;9.206;2024-02-26T09:27:47;96429.41;;;8.61;100.00
11314;BME280;5712;48.858;9.206;2024-02-26T09:30:15;96412.63;;;8.62;100.00
11314;BME280;5712;48.858;9.206;2024-02-26T09:32:46;96415.34;;;8.51;100.00
11314;BME280;5712;48.858;9.206;2024-02-26T09:35:13;96418.41;;;8.47;100.00
11314;BME280;5712;48.858;9.206;2024-02-26T09:37:39;96428.78;;;8.39;100.00
11314;BME280;5712;48.858;9.206;2024-02-26T09:40:08;96441.09;;;8.38;100.00
11314;BME280;5712;48.858;9.206;2024-02-26T09:42:37;96437.22;;;8.33;100.00
11314;BME280;5712;48.858;9.206;2024-02-26T09:45:11;96440.09;;;8.30;100.00
11314;BME280;5712;48.858;9.206;2024-02-26T09:47:40;96446.47;;;8.27;100.00
11314;BME280;5712;48.858;9.206;2024-02-26T09:50:09;96459.03;;;8.24;100.00
11314;BME280;5712;48.858;9.206;2024-02-26T09:52:37;96461.44;;;8.27;100.00
11314;BME280;5712;48.858;9.206;2024-02-26T09:55:05;96464.31;;;8.24;100.00
11314;BME280;5712;48.858;9.206;2024-02-26T09:57:31;96469.94;;;8.40;100.00
11314;BME280;5712;48.858;9.206;2024-02-26T09:59:59;96472.91;;;8.56;100.00
11314;BME280;5712;48.858;9.206;2024-02-26T10:02:29;96459.78;;;8.75;100.00
11314;BME280;5712;48.858;9.206;2024-02-26T10:04:59;96470.63;;;8.91;100.00
11314;BME280;5712;48.858;9.206;2024-02-26T10:07:28;96462.91;;;9.08;100.00
11314;BME280;5712;48.858;9.206;2024-02-26T10:09:55;96468.16;;;9.18;100.00
11314;BME280;5712;48.858;9.206;2024-02-26T10:12:23;96470.63;;;9.19;100.00
11314;BME280;5712;48.858;9.206;2024-02-26T10:14:51;96466.09;;;9.21;100.00
11314;BME280;5712;48.858;9.206;2024-02-26T10:17:18;96474.53;;;9.25;100.00
11314;BME280;5712;48.858;9.206;2024-02-26T10:19:45;96478.28;;;9.32;100.00
11314;BME280;5712;48.858;9.206;2024-02-26T10:22:13;96476.50;;;9.42;100.00
11314;BME280;5712;48.858;9.206;2024-02-26T10:24:39;96471.47;;;9.58;100.00
11314;BME280;5712;48.858;9.206;2024-02-26T10:27:06;96462.16;;;9.82;100.00
11314;BME280;5712;48.858;9.206;2024-02-26T10:29:34;96466.84;;;10.07;100.00
11314;BME280;5712;48.858;9.206;2024-02-26T10:32:01;96468.31;;;10.29;100.00
11314;BME280;5712;48.858;9.206;2024-02-26T10:34:28;96448.53;;;10.42;100.00
11314;BME280;5712;48.858;9.206;2024-02-26T10:36:54;96449.03;;;10.55;100.00
11314;BME280;5712;48.858;9.206;2024-02-26T10:39:22;96440.59;;;10.69;97.35
11314;BME280;5712;48.858;9.206;2024-02-26T10:41:49;96418.59;;;10.78;92.89
11314;BME280;5712;48.858;9.206;2024-02-26T10:44:16;96416.31;;;10.83;92.57
11314;BME280;5712;48.858;9.206;2024-02-26T10:46:43;96428.19;;;10.97;94.01
11314;BME280;5712;48.858;9.206;2024-02-26T10:49:13;96416.13;;;11.12;93.88
11314;BME280;5712;48.858;9.206;2024-02-26T10:51:44;96418.53;;;11.23;91.77
11314;BME280;5712;48.858;9.206;2024-02-26T10:54:14;96411.81;;;11.28;88.50
11314;BME280;5712;48.858;9.206;2024-02-26T10:56:42;96385.91;;;11.32;85.25
11314;BME280;5712;48.858;9.206;2024-02-26T10:59:09;96400.31;;;11.37;83.33
11314;BME280;5712;48.858;9.206;2024-02-26T11:01:36;96403.47;;;11.41;83.34
11314;BME280;5712;48.858;9.206;2024-02-26T11:04:04;96394.31;;;11.53;80.49
11314;BME280;5712;48.858;9.206;2024-02-26T11:06:31;96411.66;;;11.65;82.25
11314;BME280;5712;48.858;9.206;2024-02-26T11:09:00;96401.13;;;11.73;79.99
11314;BME280;5712;48.858;9.206;2024-02-26T11:11:27;96382.31;;;11.84;77.50
11314;BME280;5712;48.858;9.206;2024-02-26T11:13:57;96368.75;;;11.79;74.33
11314;BME280;5712;48.858;9.206;2024-02-26T11:16:25;96378.00;;;11.75;74.54
11314;BME280;5712;48.858;9.206;2024-02-26T11:18:53;96387.63;;;11.84;74.31
11314;BME280;5712;48.858;9.206;2024-02-26T11:21:21;96384.00;;;11.85;73.62
11314;BME280;5712;48.858;9.206;2024-02-26T11:23:52;96366.44;;;11.84;72.15
11314;BME280;5712;48.858;9.206;2024-02-26T11:26:20;96371.69;;;11.76;73.69
11314;BME280;5712;48.858;9.206;2024-02-26T11:28:48;96369.22;;;11.57;73.42
11314;BME280;5712;48.858;9.206;2024-02-26T11:31:17;96376.75;;;11.44;73.50
11314;BME280;5712;48.858;9.206;2024-02-26T11:33:51;96375.00;;;11.35;71.76
11314;BME280;5712;48.858;9.206;2024-02-26T11:36:19;96387.56;;;11.33;73.68
11314;BME280;5712;48.858;9.206;2024-02-26T11:38:46;96393.94;;;11.48;74.33
11314;BME280;5712;48.858;9.206;2024-02-26T11:41:17;96410.13;;;11.62;75.60
11314;BME280;5712;48.858;9.206;2024-02-26T11:43:50;96386.16;;;11.64;73.08
11314;BME280;5712;48.858;9.206;2024-02-26T11:46:29;96396.47;;;11.67;73.74
11314;BME280;5712;48.858;9.206;2024-02-26T11:48:58;96387.72;;;11.74;73.05
11314;BME280;5712;48.858;9.206;2024-02-26T11:51:26;96386.28;;;11.80;72.07
11314;BME280;5712;48.858;9.206;2024-02-26T11:53:54;96383.69;;;11.88;71.56
11314;BME280;5712;48.858;9.206;2024-02-26T11:56:23;96368.97;;;11.93;69.84
11314;BME280;5712;48.858;9.206;2024-02-26T11:59:01;96362.28;;;12.07;69.50
11314;BME280;5712;48.858;9.206;2024-02-26T12:01:38;96351.41;;;12.10;66.96
11314;BME280;5712;48.858;9.206;2024-02-26T12:04:05;96363.94;;;12.08;68.59
11314;BME280;5712;48.858;9.206;2024-02-26T12:06:33;96369.22;;;12.08;68.66
11314;BME280;5712;48.858;9.206;2024-02-26T12:09:07;96377.81;;;12.02;70.27
11314;BME280;5712;48.858;9.206;2024-02-26T12:11:37;96371.22;;;12.06;69.00
11314;BME280;5712;48.858;9.206;2024-02-26T12:14:05;96359.59;;;11.99;67.29
11314;BME280;5712;48.858;9.206;2024-02-26T12:16:38;96369.16;;;11.92;67.86
11314;BME280;5712;48.858;9.206;2024-02-26T12:19:06;96377.56;;;11.87;68.92
11314;BME280;5712;48.858;9.206;2024-02-26T12:21:34;96384.69;;;11.87;69.40
11314;BME280;5712;48.858;9.206;2024-02-26T12:24:10;96391.66;;;11.96;69.88
11314;BME280;5712;48.858;9.206;2024-02-26T12:26:37;96405.94;;;12.03;70.03
11314;BME280;5712;48.858;9.206;2024-02-26T12:29:04;96413.25;;;12.09;70.71
11314;BME280;5712;48.858;9.206;2024-02-26T12:31:31;96404.56;;;12.24;70.31
11314;BME280;5712;48.858;9.206;2024-02-26T12:34:00;96382.94;;;12.37;67.53
11314;BME280;5712;48.858;9.206;2024-02-26T12:36:26;96391.44;;;12.48;67.67
11314;BME280;5712;48.858;9.206;2024-02-26T12:38:53;96383.34;;;12.58;67.12
11314;BME280;5712;48.858;9.206;2024-02-26T12:41:20;96381.25;;;12.69;66.79
11314;BME280;5712;48.858;9.206;2024-02-26T12:43:47;96383.75;;;12.71;66.95
11314;BME280;5712;48.858;9.206;2024-02-26T12:46:13;96399.31;;;12.74;68.82
11314;BME280;5712;48.858;9.206;2024-02-26T12:48:42;96402.97;;;12.81;69.12
11314;BME280;5712;48.858;9.206;2024-02-26T12:51:11;96396.88;;;12.88;68.25
11314;BME280;5712;48.858;9.206;2024-02-26T12:53:38;96392.63;;;12.95;67.15
11314;BME280;5712;48.858;9.206;2024-02-26T12:56:06;96395.28;;;13.03;66.78
11314;BME280;5712;48.858;9.206;2024-02-26T12:58:34;96395.47;;;13.10;67.06
11314;BME280;5712;48.858;9.206;2024-02-26T13:01:03;96405.09;;;13.19;67.77
11314;BME280;5712;48.858;9.206;2024-02-26T13:03:30;96399.78;;;13.19;67.11
11314;BME280;5712;48.858;9.206;2024-02-26T13:05:57;96413.53;;;13.14;67.49
11314;BME280;5712;48.858;9.206;2024-02-26T13:08:25;96406.41;;;13.07;67.45
11314;BME280;5712;48.858;9.206;2024-02-26T13:10:52;96397.47;;;13.08;67.30
11314;BME280;5712;48.858;9.206;2024-02-26T13:13:19;96412.72;;;13.14;67.14
11314;BME280;5712;48.858;9.206;2024-02-26T13:15:46;96404.44;;;13.17;66.50